Munhall, PA

4:04 AM EDT on April 24, 2017 (GMT -0400)
Ellsworth Ave | | Change Station

Elev 1076 ft 40.38 °N, 79.90 °W | Updated 34 seconds ago

Partly Cloudy
Partly Cloudy
39.7 °F
Feels Like 40 °F
N
0.0
Wind Variable Wind from SSW

Today
High -- | Low -- °F
--% Chance of Precip.
Yesterday
High -- | Low -- °F
Precip. -- in
Pressure 30.02 in
Visibility 10.0 miles
Clouds Clear
Windchill 40 °F
Dew Point 34 °F
Humidity 81%
Rainfall 0.00 in
Snow Depth Not available.
6:27 AM 8:08 PM
Waning Crescent, 7% visible
METAR KAGC 240753Z AUTO 03004KT 10SM CLR 09/M01 A3001 RMK AO2 SLP165 T00941006
Pressure 30.02 in
Visibility 10.0 miles
Clouds Clear
Windchill 40 °F
Dew Point 34 °F
Humidity 81%
Rainfall 0.00 in
Snow Depth Not available.
6:27 AM 8:08 PM
Waning Crescent, 7% visible
METAR KAGC 240753Z AUTO 03004KT 10SM CLR 09/M01 A3001 RMK AO2 SLP165 T00941006

Get Severe Weather Alerts

Thanks for signing up!

Be on the lookout for a verification email in your inbox.

You'll start receiving the daily forecast at 8 AM.

×

10-Day Weather Forecast

Almanac

Astronomy

Apr. 24, 2017 Rise Set
Actual Time
Civil Twilight
Nautical Twilight
Astronomical Twilight
Moon
Length of Visible Light
Length of Day
Tomorrow will be .
, % of the Moon is Illuminated

Today's Extremes

State Highs State Lows

Community

WunderPhotos

WunderBlog® & News

Nearby

Air Quality

  Air Quality AQ Index Pollutant
Not available.

Snow Depth

Station Depth Elevation

Earthquake Activity

City Distance Mag. Time & Date
Minimum magnitude displayed is 2.5.

Coastal Water Temperatures

Place Temperature

Stations

Nearby Weather Stations

Station Location Temp. Windchill Dew Point Humidity Wind Precip. Elev Updated Type
                   

Watches & Warnings

There are currently no watches in effect.